createdAt,value
2017-03-21T00:00:25.079Z,998.36
2017-03-21T00:01:05.724Z,998.35
2017-03-21T00:01:46.393Z,998.43
2017-03-21T00:02:28.054Z,998.37
2017-03-21T00:03:08.727Z,998.46
2017-03-21T00:03:49.361Z,998.36
2017-03-21T00:04:30.023Z,998.41
2017-03-21T00:05:10.668Z,998.34
2017-03-21T00:05:51.323Z,998.36
2017-03-21T00:06:31.979Z,998.4
2017-03-21T00:07:12.625Z,998.43
2017-03-21T00:07:54.204Z,998.34
2017-03-21T00:08:34.959Z,998.3
2017-03-21T00:09:16.121Z,998.34
2017-03-21T00:09:56.806Z,998.33
2017-03-21T00:10:38.457Z,998.33
2017-03-21T00:11:19.115Z,998.32
2017-03-21T00:11:59.763Z,998.34
2017-03-21T00:12:40.419Z,998.32
2017-03-21T00:13:21.078Z,998.36
2017-03-21T00:14:01.716Z,998.47
2017-03-21T00:14:42.374Z,998.38
2017-03-21T00:15:23.028Z,998.31
2017-03-21T00:16:03.676Z,998.33
2017-03-21T00:16:44.329Z,998.28
2017-03-21T00:17:24.982Z,998.3
2017-03-21T00:18:05.539Z,998.3
2017-03-21T00:18:46.156Z,998.31
2017-03-21T00:19:26.761Z,998.31
2017-03-21T00:20:08.434Z,998.38
2017-03-21T00:20:49.005Z,998.37
2017-03-21T00:21:29.675Z,998.39
2017-03-21T00:22:10.265Z,998.37
2017-03-21T00:22:50.922Z,998.4
2017-03-21T00:23:31.576Z,998.43
2017-03-21T00:24:12.234Z,998.44
2017-03-21T00:24:52.886Z,998.4
2017-03-21T00:25:33.543Z,998.44
2017-03-21T00:26:14.194Z,998.39
2017-03-21T00:26:54.845Z,998.34
2017-03-21T00:27:35.497Z,998.41
2017-03-21T00:28:16.161Z,998.39
2017-03-21T00:28:57.825Z,998.39
2017-03-21T00:29:38.481Z,998.39
2017-03-21T00:30:19.137Z,998.4
2017-03-21T00:30:59.786Z,998.45
2017-03-21T00:31:40.439Z,998.46
2017-03-21T00:32:21.088Z,998.43
2017-03-21T00:33:01.857Z,998.45
2017-03-21T00:33:42.431Z,998.37
2017-03-21T00:34:23.525Z,998.43
2017-03-21T00:35:04.107Z,998.39
2017-03-21T00:35:44.768Z,998.44
2017-03-21T00:36:25.314Z,998.47
2017-03-21T00:37:06.964Z,998.44
2017-03-21T00:37:47.638Z,998.46
2017-03-21T00:38:28.302Z,998.39
2017-03-21T00:39:08.864Z,998.57
2017-03-21T00:39:49.566Z,998.43
2017-03-21T00:40:30.148Z,998.44
2017-03-21T00:41:10.810Z,998.45
2017-03-21T00:41:51.362Z,998.39
2017-03-21T00:42:31.946Z,998.45
2017-03-21T00:43:12.556Z,998.51
2017-03-21T00:43:53.214Z,998.4
2017-03-21T00:44:33.762Z,998.46
2017-03-21T00:45:14.390Z,998.47
2017-03-21T00:45:55.082Z,998.44
2017-03-21T00:46:35.724Z,998.47
2017-03-21T00:47:16.303Z,998.42
2017-03-21T00:47:57.052Z,998.46
2017-03-21T00:48:37.681Z,998.39
2017-03-21T00:49:18.243Z,998.42
2017-03-21T00:49:58.814Z,998.37
2017-03-21T00:50:39.512Z,998.44
2017-03-21T00:51:20.204Z,998.43
2017-03-21T00:52:00.874Z,998.48
2017-03-21T00:52:41.422Z,998.47
2017-03-21T00:53:22.101Z,998.46
2017-03-21T00:54:02.973Z,998.42
2017-03-21T00:54:43.534Z,998.39
2017-03-21T00:55:24.218Z,998.45
2017-03-21T00:56:04.861Z,998.45
2017-03-21T00:56:45.445Z,998.54
2017-03-21T00:57:26.086Z,998.5
2017-03-21T00:58:07.751Z,998.54
2017-03-21T00:58:48.406Z,998.49
2017-03-21T00:59:29.058Z,998.58
2017-03-21T01:00:13.899Z,998.53
2017-03-21T01:00:57.041Z,998.59
2017-03-21T01:01:42.743Z,998.55
2017-03-21T01:02:26.589Z,998.49
2017-03-21T01:03:09.149Z,998.53
2017-03-21T01:03:52.304Z,998.64
2017-03-21T01:04:34.406Z,998.52
2017-03-21T01:05:15.075Z,998.54
2017-03-21T01:05:55.732Z,998.52
2017-03-21T01:06:36.379Z,998.59
2017-03-21T01:07:17.026Z,998.58
2017-03-21T01:07:57.679Z,998.57
2017-03-21T01:08:38.330Z,998.67
2017-03-21T01:09:18.978Z,998.63
2017-03-21T01:09:59.632Z,998.61
2017-03-21T01:10:40.192Z,998.62
2017-03-21T01:11:20.837Z,998.62
2017-03-21T01:12:01.497Z,998.65
2017-03-21T01:12:42.161Z,998.68
2017-03-21T01:13:22.792Z,998.68
2017-03-21T01:14:03.451Z,998.73
2017-03-21T01:14:44.107Z,998.67
2017-03-21T01:15:24.753Z,998.74
2017-03-21T01:16:05.403Z,998.71
2017-03-21T01:16:46.065Z,998.68
2017-03-21T01:17:26.721Z,998.71
2017-03-21T01:18:07.387Z,998.72
2017-03-21T01:18:48.023Z,998.74
2017-03-21T01:19:28.682Z,998.77
2017-03-21T01:20:09.331Z,998.75
2017-03-21T01:20:49.982Z,998.75
2017-03-21T01:21:30.637Z,998.76
2017-03-21T01:22:11.287Z,998.76
2017-03-21T01:22:51.944Z,998.73
2017-03-21T01:23:32.519Z,998.67
2017-03-21T01:24:14.176Z,998.67
2017-03-21T01:24:54.804Z,998.75
2017-03-21T01:25:35.475Z,998.75
2017-03-21T01:26:16.049Z,998.75
2017-03-21T01:26:56.732Z,998.77
2017-03-21T01:27:37.319Z,998.74
2017-03-21T01:28:17.985Z,998.72
2017-03-21T01:28:58.637Z,998.76
2017-03-21T01:29:39.291Z,998.71
2017-03-21T01:30:19.942Z,998.71
2017-03-21T01:31:00.599Z,998.77
2017-03-21T01:31:41.247Z,998.77
2017-03-21T01:32:21.901Z,998.78
2017-03-21T01:33:02.551Z,998.78
2017-03-21T01:33:43.212Z,998.77
2017-03-21T01:34:23.862Z,998.7
2017-03-21T01:35:04.516Z,998.73
2017-03-21T01:35:45.169Z,998.71
2017-03-21T01:36:25.816Z,998.78
2017-03-21T01:37:06.472Z,998.72
2017-03-21T01:37:47.124Z,998.74
2017-03-21T01:38:27.680Z,998.72
2017-03-21T01:39:08.324Z,998.71
2017-03-21T01:39:48.987Z,998.76
2017-03-21T01:40:29.539Z,998.73
2017-03-21T01:41:10.187Z,998.72
2017-03-21T01:41:50.838Z,998.72
2017-03-21T01:42:31.410Z,998.68
2017-03-21T01:43:12.055Z,998.71
2017-03-21T01:43:52.697Z,998.78
2017-03-21T01:44:33.262Z,998.78
2017-03-21T01:45:13.856Z,998.69
2017-03-21T01:45:54.447Z,998.71
2017-03-21T01:46:35.104Z,998.77
2017-03-21T01:47:15.677Z,998.71
2017-03-21T01:47:56.386Z,998.77
2017-03-21T01:48:37.054Z,998.78
2017-03-21T01:49:17.716Z,998.8
2017-03-21T01:49:58.306Z,998.83
2017-03-21T01:50:39.001Z,998.8
2017-03-21T01:51:19.679Z,998.84
2017-03-21T01:52:00.329Z,998.77
2017-03-21T01:52:40.903Z,998.82
2017-03-21T01:53:21.623Z,998.83
2017-03-21T01:54:02.291Z,998.89
2017-03-21T01:54:42.957Z,998.82
2017-03-21T01:55:23.592Z,998.87
2017-03-21T01:56:04.276Z,998.79
2017-03-21T01:56:45.315Z,998.87
2017-03-21T01:57:25.969Z,998.91
2017-03-21T01:58:06.622Z,998.8
2017-03-21T01:58:47.269Z,998.81
2017-03-21T01:59:27.921Z,998.82
2017-03-21T02:00:08.576Z,998.79
2017-03-21T02:00:49.240Z,998.82
2017-03-21T02:01:29.880Z,998.76
2017-03-21T02:02:11.565Z,998.75
2017-03-21T02:02:52.209Z,998.84
2017-03-21T02:03:32.868Z,998.84
2017-03-21T02:04:13.523Z,998.82
2017-03-21T02:04:54.182Z,998.83
2017-03-21T02:05:34.817Z,998.86
2017-03-21T02:06:16.492Z,998.86
2017-03-21T02:06:57.154Z,998.78
2017-03-21T02:07:37.804Z,998.85
2017-03-21T02:08:18.455Z,998.84
2017-03-21T02:08:59.115Z,998.8
2017-03-21T02:09:39.765Z,998.75
2017-03-21T02:10:20.427Z,998.81
2017-03-21T02:11:01.068Z,998.78
2017-03-21T02:11:41.716Z,998.75
2017-03-21T02:12:22.374Z,998.75
2017-03-21T02:13:03.033Z,998.79
2017-03-21T02:13:43.675Z,998.83
2017-03-21T02:14:24.336Z,998.76
2017-03-21T02:15:04.987Z,998.7
2017-03-21T02:15:45.572Z,998.77
2017-03-21T02:16:26.293Z,998.82
2017-03-21T02:17:07.961Z,998.8
2017-03-21T02:17:49.647Z,998.76
2017-03-21T02:18:30.300Z,998.83
2017-03-21T02:19:12.038Z,998.83
2017-03-21T02:19:52.630Z,998.81
2017-03-21T02:20:34.306Z,998.77
2017-03-21T02:21:14.960Z,998.75
2017-03-21T02:21:55.615Z,998.77
2017-03-21T02:22:36.265Z,998.75
2017-03-21T02:23:16.918Z,998.75
2017-03-21T02:23:57.501Z,998.74
2017-03-21T02:24:38.172Z,998.75
2017-03-21T02:25:18.787Z,998.74
2017-03-21T02:26:00.463Z,998.73
2017-03-21T02:26:41.032Z,998.73
2017-03-21T02:27:21.735Z,998.72
2017-03-21T02:28:02.428Z,998.72
2017-03-21T02:28:43.064Z,998.75
2017-03-21T02:29:23.722Z,998.75
2017-03-21T02:30:04.383Z,998.75
2017-03-21T02:30:45.022Z,998.72
2017-03-21T02:31:25.609Z,998.74
2017-03-21T02:32:06.290Z,998.75
2017-03-21T02:32:46.975Z,998.74
2017-03-21T02:33:27.581Z,998.74
2017-03-21T02:34:08.230Z,998.71
2017-03-21T02:34:48.837Z,998.71
2017-03-21T02:35:29.403Z,998.71
2017-03-21T02:36:10.039Z,998.72
2017-03-21T02:36:51.102Z,998.75
2017-03-21T02:37:31.660Z,998.78
2017-03-21T02:38:12.311Z,998.81
2017-03-21T02:38:52.957Z,998.82
2017-03-21T02:39:33.530Z,998.71
2017-03-21T02:40:14.184Z,998.81
2017-03-21T02:40:54.818Z,998.79
2017-03-21T02:41:35.463Z,998.78
2017-03-21T02:42:16.067Z,998.83
2017-03-21T02:42:56.732Z,998.85
2017-03-21T02:43:37.340Z,998.83
2017-03-21T02:44:17.964Z,998.81
2017-03-21T02:44:58.633Z,998.81
2017-03-21T02:45:39.682Z,998.81
2017-03-21T02:46:20.348Z,998.8
2017-03-21T02:47:01.004Z,998.84
2017-03-21T02:47:42.065Z,998.89
2017-03-21T02:48:22.735Z,998.9
2017-03-21T02:49:03.306Z,998.89
2017-03-21T02:49:43.980Z,998.88
2017-03-21T02:50:24.573Z,998.96
2017-03-21T02:51:05.242Z,999.03
2017-03-21T02:51:45.805Z,999.06
2017-03-21T02:52:26.378Z,999.11
2017-03-21T02:53:07.021Z,999.08
2017-03-21T02:53:47.644Z,999.04
2017-03-21T02:54:28.274Z,999.07
2017-03-21T02:55:09.353Z,999.05
2017-03-21T02:55:50.003Z,999.06
2017-03-21T02:56:30.660Z,999.05
2017-03-21T02:57:11.329Z,999.05
2017-03-21T02:57:51.984Z,999.06
2017-03-21T02:58:32.614Z,999.06
2017-03-21T02:59:13.270Z,999.1
2017-03-21T02:59:53.840Z,999.1
2017-03-21T03:00:34.482Z,999.05
2017-03-21T03:01:15.122Z,999.13
2017-03-21T03:01:55.717Z,999.08
2017-03-21T03:02:36.318Z,999.13
2017-03-21T03:03:16.871Z,999.09
2017-03-21T03:03:57.511Z,999.12
2017-03-21T03:04:38.181Z,999.08
2017-03-21T03:05:18.752Z,999.06
2017-03-21T03:05:59.388Z,999.02
2017-03-21T03:06:41.060Z,999.01
2017-03-21T03:07:21.632Z,999.01
2017-03-21T03:08:02.347Z,998.99
2017-03-21T03:08:42.921Z,998.94
2017-03-21T03:09:23.498Z,998.88
2017-03-21T03:10:04.124Z,998.9
2017-03-21T03:10:44.778Z,998.89
2017-03-21T03:11:25.337Z,998.84
2017-03-21T03:12:05.990Z,998.88
2017-03-21T03:12:46.844Z,998.89
2017-03-21T03:13:27.611Z,998.93
2017-03-21T03:14:08.315Z,998.95
2017-03-21T03:14:49.004Z,998.92
2017-03-21T03:15:29.555Z,998.9
2017-03-21T03:16:10.206Z,998.87
2017-03-21T03:16:50.873Z,998.9
2017-03-21T03:17:31.824Z,998.94
2017-03-21T03:18:12.447Z,998.96
2017-03-21T03:18:53.081Z,999.02
2017-03-21T03:19:33.670Z,998.98
2017-03-21T03:20:14.329Z,999
2017-03-21T03:20:55.101Z,998.97
2017-03-21T03:21:35.689Z,999.04
2017-03-21T03:22:16.271Z,999.04
2017-03-21T03:22:56.943Z,999.02
2017-03-21T03:23:37.506Z,999.02
2017-03-21T03:24:19.127Z,998.99
2017-03-21T03:25:00.803Z,998.97
2017-03-21T03:25:41.531Z,998.94
2017-03-21T03:26:22.215Z,998.98
2017-03-21T03:27:03.896Z,998.99
2017-03-21T03:27:45.560Z,999.07
2017-03-21T03:28:27.303Z,999.1
2017-03-21T03:29:07.891Z,999.09
2017-03-21T03:29:48.560Z,999.14
2017-03-21T03:30:29.193Z,999.13
2017-03-21T03:31:09.846Z,999.07
2017-03-21T03:31:50.500Z,999.07
2017-03-21T03:32:31.199Z,999.07
2017-03-21T03:33:11.813Z,999.06
2017-03-21T03:33:52.522Z,999.08
2017-03-21T03:34:33.198Z,999.08
2017-03-21T03:35:13.769Z,999.06
2017-03-21T03:35:54.495Z,999.07
2017-03-21T03:36:35.117Z,999.08
2017-03-21T03:37:15.772Z,999.05
2017-03-21T03:37:56.524Z,999.04
2017-03-21T03:38:37.153Z,999.05
2017-03-21T03:39:17.733Z,999.06
2017-03-21T03:39:58.384Z,999.05
2017-03-21T03:40:38.945Z,999.04
2017-03-21T03:41:19.695Z,999.04
2017-03-21T03:42:00.342Z,999.07
2017-03-21T03:42:40.996Z,999.04
2017-03-21T03:43:21.598Z,999.06
2017-03-21T03:44:02.182Z,999.08
2017-03-21T03:44:42.851Z,999.06
2017-03-21T03:45:23.414Z,999.1
2017-03-21T03:46:04.058Z,999.11
2017-03-21T03:46:44.712Z,999.09
2017-03-21T03:47:25.274Z,999.13
2017-03-21T03:48:05.930Z,999.17
2017-03-21T03:48:47.591Z,999.2
2017-03-21T03:49:28.170Z,999.15
2017-03-21T03:50:08.846Z,999.16
2017-03-21T03:50:49.463Z,999.1
2017-03-21T03:51:30.103Z,999.12
2017-03-21T03:52:10.676Z,999.17
2017-03-21T03:52:51.355Z,999.15
2017-03-21T03:53:31.956Z,999.13
2017-03-21T03:54:13.633Z,999.19
2017-03-21T03:54:54.286Z,999.14
2017-03-21T03:55:34.938Z,999.14
2017-03-21T03:56:15.623Z,999.13
2017-03-21T03:56:56.242Z,999.14
2017-03-21T03:57:36.897Z,999.14
2017-03-21T03:58:17.548Z,999.12
2017-03-21T03:58:59.234Z,999.11
2017-03-21T03:59:39.881Z,999.16
2017-03-21T04:00:20.532Z,999.17
2017-03-21T04:01:01.186Z,999.22
2017-03-21T04:01:41.838Z,999.18
2017-03-21T04:02:22.491Z,999.14
2017-03-21T04:03:03.143Z,999.19
2017-03-21T04:03:43.796Z,999.13
2017-03-21T04:04:25.269Z,999.15
2017-03-21T04:05:05.922Z,999.18
2017-03-21T04:05:46.576Z,999.15
2017-03-21T04:06:27.333Z,999.14
2017-03-21T04:07:07.985Z,999.14
2017-03-21T04:07:48.644Z,999.17
2017-03-21T04:08:29.300Z,999.17
2017-03-21T04:09:09.942Z,999.16
2017-03-21T04:09:50.596Z,999.08
2017-03-21T04:10:31.249Z,999.12
2017-03-21T04:11:12.930Z,999.12
2017-03-21T04:11:53.579Z,999.1
2017-03-21T04:12:35.258Z,999.11
2017-03-21T04:13:15.908Z,999.15
2017-03-21T04:13:56.492Z,999.13
2017-03-21T04:14:37.093Z,999.18
2017-03-21T04:15:17.788Z,999.19
2017-03-21T04:15:58.338Z,999.19
2017-03-21T04:16:38.976Z,999.15
2017-03-21T04:17:19.614Z,999.14
2017-03-21T04:18:00.269Z,999.13
2017-03-21T04:18:40.943Z,999.15
2017-03-21T04:19:21.606Z,999.2
2017-03-21T04:20:02.269Z,999.16
2017-03-21T04:20:42.886Z,999.2
2017-03-21T04:21:24.583Z,999.2
2017-03-21T04:22:05.240Z,999.17
2017-03-21T04:22:47.288Z,999.24
2017-03-21T04:23:27.959Z,999.24
2017-03-21T04:24:08.609Z,999.26
2017-03-21T04:24:49.180Z,999.27
2017-03-21T04:25:29.774Z,999.22
2017-03-21T04:26:11.420Z,999.24
2017-03-21T04:26:52.045Z,999.29
2017-03-21T04:27:32.616Z,999.3
2017-03-21T04:28:13.594Z,999.26
2017-03-21T04:28:55.229Z,999.29
2017-03-21T04:29:36.906Z,999.21
2017-03-21T04:30:17.559Z,999.21
2017-03-21T04:30:58.221Z,999.2
2017-03-21T04:31:38.863Z,999.23
2017-03-21T04:32:19.534Z,999.23
2017-03-21T04:33:00.172Z,999.2
2017-03-21T04:33:40.813Z,999.16
2017-03-21T04:34:21.477Z,999.19
2017-03-21T04:35:02.124Z,999.24
2017-03-21T04:35:42.783Z,999.23
2017-03-21T04:36:24.461Z,999.26
2017-03-21T04:37:06.139Z,999.24
2017-03-21T04:37:46.783Z,999.27
2017-03-21T04:38:27.441Z,999.23
2017-03-21T04:39:08.031Z,999.26
2017-03-21T04:39:48.702Z,999.22
2017-03-21T04:40:29.395Z,999.23
2017-03-21T04:41:10.058Z,999.2
2017-03-21T04:41:50.641Z,999.18
2017-03-21T04:42:32.230Z,999.18
2017-03-21T04:43:12.836Z,999.15
2017-03-21T04:43:53.485Z,999.16
2017-03-21T04:44:34.048Z,999.19
2017-03-21T04:45:14.662Z,999.2
2017-03-21T04:45:55.354Z,999.2
2017-03-21T04:46:35.995Z,999.24
2017-03-21T04:47:16.559Z,999.28
2017-03-21T04:47:58.225Z,999.21
2017-03-21T04:48:38.877Z,999.22
2017-03-21T04:49:19.528Z,999.23
2017-03-21T04:50:00.127Z,999.27
2017-03-21T04:50:40.786Z,999.26
2017-03-21T04:51:21.386Z,999.21
2017-03-21T04:52:02.050Z,999.22
2017-03-21T04:52:42.614Z,999.21
2017-03-21T04:53:23.355Z,999.22
2017-03-21T04:54:04.394Z,999.26
2017-03-21T04:54:45.059Z,999.24
2017-03-21T04:55:25.713Z,999.27
2017-03-21T04:56:06.375Z,999.24
2017-03-21T04:56:47.019Z,999.28
2017-03-21T04:57:27.759Z,999.28
2017-03-21T04:58:08.444Z,999.26
2017-03-21T04:58:49.082Z,999.32
2017-03-21T04:59:29.727Z,999.32
2017-03-21T05:00:11.404Z,999.3
2017-03-21T05:00:52.061Z,999.32
2017-03-21T05:01:32.726Z,999.33
2017-03-21T05:02:14.402Z,999.36
2017-03-21T05:02:55.034Z,999.33
2017-03-21T05:03:35.714Z,999.35
2017-03-21T05:04:16.355Z,999.34
2017-03-21T05:04:57.010Z,999.35
2017-03-21T05:05:37.689Z,999.39
2017-03-21T05:06:18.322Z,999.44
2017-03-21T05:06:58.998Z,999.41
2017-03-21T05:07:39.616Z,999.48
2017-03-21T05:08:20.267Z,999.47
2017-03-21T05:09:00.854Z,999.45
2017-03-21T05:09:41.473Z,999.48
2017-03-21T05:10:22.132Z,999.43
2017-03-21T05:11:02.697Z,999.44
2017-03-21T05:11:43.265Z,999.45
2017-03-21T05:12:23.861Z,999.47
2017-03-21T05:13:05.461Z,999.46
2017-03-21T05:13:46.053Z,999.5
2017-03-21T05:14:26.713Z,999.47
2017-03-21T05:15:07.373Z,999.46
2017-03-21T05:15:48.031Z,999.52
2017-03-21T05:16:28.686Z,999.54
2017-03-21T05:17:09.332Z,999.58
2017-03-21T05:17:50.995Z,999.6
2017-03-21T05:18:32.574Z,999.57
2017-03-21T05:19:13.224Z,999.56
2017-03-21T05:19:53.878Z,999.57
2017-03-21T05:20:34.567Z,999.57
2017-03-21T05:21:15.185Z,999.58
2017-03-21T05:21:55.839Z,999.6
2017-03-21T05:22:37.411Z,999.61
2017-03-21T05:23:18.113Z,999.62
2017-03-21T05:23:58.734Z,999.61
2017-03-21T05:24:39.424Z,999.67
2017-03-21T05:25:20.027Z,999.65
2017-03-21T05:26:00.677Z,999.67
2017-03-21T05:26:41.346Z,999.62
2017-03-21T05:27:22.012Z,999.64
2017-03-21T05:28:02.657Z,999.59
2017-03-21T05:28:45.224Z,999.66
2017-03-21T05:29:25.839Z,999.63
2017-03-21T05:30:06.492Z,999.64
2017-03-21T05:30:47.025Z,999.62
2017-03-21T05:31:27.630Z,999.67
2017-03-21T05:32:08.242Z,999.67
2017-03-21T05:32:48.899Z,999.6
2017-03-21T05:33:29.498Z,999.6
2017-03-21T05:34:10.152Z,999.57
2017-03-21T05:34:50.805Z,999.6
2017-03-21T05:35:31.470Z,999.55
2017-03-21T05:36:12.392Z,999.54
2017-03-21T05:36:52.959Z,999.58
2017-03-21T05:37:33.621Z,999.54
2017-03-21T05:38:14.307Z,999.52
2017-03-21T05:38:54.939Z,999.51
2017-03-21T05:39:35.531Z,999.56
2017-03-21T05:40:26.950Z,999.61
2017-03-21T05:41:07.603Z,999.59
2017-03-21T05:41:48.148Z,999.57
2017-03-21T05:42:28.739Z,999.61
2017-03-21T05:43:09.359Z,999.62
2017-03-21T05:43:49.914Z,999.68
2017-03-21T05:44:31.568Z,999.67
2017-03-21T05:45:12.223Z,999.66
2017-03-21T05:45:53.464Z,999.67
2017-03-21T05:46:34.042Z,999.73
2017-03-21T05:47:14.698Z,999.7
2017-03-21T05:47:55.352Z,999.73
2017-03-21T05:48:35.997Z,999.7
2017-03-21T05:49:16.662Z,999.73
2017-03-21T05:49:57.305Z,999.76
2017-03-21T05:50:37.959Z,999.78
2017-03-21T05:51:18.619Z,999.76
2017-03-21T05:51:59.265Z,999.78
2017-03-21T05:52:39.919Z,999.77
2017-03-21T05:53:20.575Z,999.78
2017-03-21T05:54:01.173Z,999.82
2017-03-21T05:54:41.747Z,999.81
2017-03-21T05:55:22.398Z,999.79
2017-03-21T05:56:03.085Z,999.81
2017-03-21T05:56:43.732Z,999.8
2017-03-21T05:57:24.283Z,999.79
2017-03-21T05:58:04.909Z,999.78
2017-03-21T05:58:45.491Z,999.78
2017-03-21T05:59:27.059Z,999.78
2017-03-21T06:00:07.712Z,999.78
2017-03-21T06:00:48.366Z,999.79
2017-03-21T06:01:29.029Z,999.75
2017-03-21T06:02:10.703Z,999.75
2017-03-21T06:02:51.365Z,999.77
2017-03-21T06:03:33.039Z,999.77
2017-03-21T06:04:13.600Z,999.77
2017-03-21T06:04:54.224Z,999.8
2017-03-21T06:05:35.002Z,999.82
2017-03-21T06:06:15.588Z,999.79
2017-03-21T06:06:56.218Z,999.81
2017-03-21T06:07:36.841Z,999.83
2017-03-21T06:08:17.397Z,999.82
2017-03-21T06:08:58.047Z,999.73
2017-03-21T06:09:38.703Z,999.79
2017-03-21T06:10:19.348Z,999.82
2017-03-21T06:11:01.031Z,999.78
2017-03-21T06:11:41.682Z,999.78
2017-03-21T06:12:23.363Z,999.76
2017-03-21T06:13:04.017Z,999.78
2017-03-21T06:13:44.688Z,999.8
2017-03-21T06:14:25.317Z,999.8
2017-03-21T06:15:05.919Z,999.8
2017-03-21T06:15:47.598Z,999.81
2017-03-21T06:16:28.599Z,999.83
2017-03-21T06:17:09.255Z,999.83
2017-03-21T06:17:49.830Z,999.8
2017-03-21T06:18:30.437Z,999.85
2017-03-21T06:19:11.135Z,999.86
2017-03-21T06:19:53.716Z,999.88
2017-03-21T06:20:34.364Z,999.86
2017-03-21T06:21:15.072Z,999.91
2017-03-21T06:21:55.773Z,999.9
2017-03-21T06:22:36.431Z,999.94
2017-03-21T06:23:17.084Z,999.95
2017-03-21T06:23:57.729Z,999.9
2017-03-21T06:24:40.336Z,999.98
2017-03-21T06:25:20.911Z,999.97
2017-03-21T06:26:01.539Z,999.94
2017-03-21T06:26:42.190Z,999.99
2017-03-21T06:27:22.738Z,999.97
2017-03-21T06:28:03.298Z,999.98
2017-03-21T06:28:43.945Z,999.98
2017-03-21T06:29:24.517Z,999.98
2017-03-21T06:30:05.218Z,999.97
2017-03-21T06:30:45.913Z,999.98
2017-03-21T06:31:26.562Z,999.96
2017-03-21T06:32:07.134Z,999.95
2017-03-21T06:32:47.819Z,999.93
2017-03-21T06:33:28.430Z,999.89
2017-03-21T06:34:09.064Z,999.9
2017-03-21T06:34:49.618Z,999.88
2017-03-21T06:35:30.278Z,999.92
2017-03-21T06:36:10.929Z,999.91
2017-03-21T06:36:51.504Z,999.94
2017-03-21T06:37:37.762Z,999.93
2017-03-21T06:38:18.490Z,999.92
2017-03-21T06:38:59.574Z,999.94
2017-03-21T06:39:41.253Z,999.92
2017-03-21T06:40:21.857Z,999.95
2017-03-21T06:41:08.282Z,999.93
2017-03-21T06:41:50.994Z,999.96
2017-03-21T06:42:31.564Z,999.99
2017-03-21T06:43:13.227Z,999.96
2017-03-21T06:43:53.876Z,999.95
2017-03-21T06:44:34.524Z,999.98
2017-03-21T06:45:15.187Z,999.96
2017-03-21T06:45:55.845Z,999.96
2017-03-21T06:46:36.491Z,1000.01
2017-03-21T06:47:17.144Z,1000
2017-03-21T06:47:57.792Z,999.96
2017-03-21T06:48:38.444Z,1000.01
2017-03-21T06:49:19.099Z,1000
2017-03-21T06:50:00.673Z,1000.04
2017-03-21T06:50:41.351Z,1000.02
2017-03-21T06:51:21.978Z,1000.03
2017-03-21T06:52:02.638Z,1000.03
2017-03-21T06:52:44.306Z,999.98
2017-03-21T06:53:24.962Z,1000.01
2017-03-21T06:54:05.615Z,1000.06
2017-03-21T06:54:47.294Z,1000.03
2017-03-21T06:55:27.955Z,1000.04
2017-03-21T06:56:08.600Z,1000.04
2017-03-21T06:56:50.276Z,1000.05
2017-03-21T06:57:30.927Z,1000.04
2017-03-21T06:58:11.586Z,1000.08
2017-03-21T06:58:53.258Z,1000.08
2017-03-21T06:59:33.820Z,1000.08
2017-03-21T07:00:14.441Z,1000.08
2017-03-21T07:00:55.112Z,1000.08
2017-03-21T07:01:35.675Z,1000.15
2017-03-21T07:02:16.317Z,1000.18
2017-03-21T07:02:56.969Z,1000.14
2017-03-21T07:03:37.554Z,1000.18
2017-03-21T07:04:18.168Z,1000.19
2017-03-21T07:04:58.823Z,1000.25
2017-03-21T07:05:39.379Z,1000.26
2017-03-21T07:06:20.015Z,1000.24
2017-03-21T07:07:00.682Z,1000.24
2017-03-21T07:07:41.337Z,1000.28
2017-03-21T07:08:21.904Z,1000.29
2017-03-21T07:09:04.539Z,1000.3
2017-03-21T07:09:45.136Z,1000.26
2017-03-21T07:10:25.815Z,1000.29
2017-03-21T07:11:06.377Z,1000.34
2017-03-21T07:11:46.943Z,1000.3
2017-03-21T07:12:27.555Z,1000.34
2017-03-21T07:13:08.198Z,1000.36
2017-03-21T07:13:48.780Z,1000.41
2017-03-21T07:14:30.407Z,1000.35
2017-03-21T07:15:11.079Z,1000.39
2017-03-21T07:15:53.677Z,1000.38
2017-03-21T07:16:34.249Z,1000.3
2017-03-21T07:17:15.869Z,1000.34
2017-03-21T07:17:56.575Z,1000.32
2017-03-21T07:18:42.051Z,1000.33
2017-03-21T07:19:22.598Z,1000.33
2017-03-21T07:20:04.215Z,1000.29
2017-03-21T07:20:44.904Z,1000.35
2017-03-21T07:21:25.461Z,1000.35
2017-03-21T07:22:06.063Z,1000.35
2017-03-21T07:22:58.333Z,1000.31
2017-03-21T07:23:38.991Z,1000.29
2017-03-21T07:24:19.539Z,1000.27
2017-03-21T07:25:21.077Z,1000.3
2017-03-21T07:26:01.730Z,1000.31
2017-03-21T07:26:42.385Z,1000.38
2017-03-21T07:45:40.933Z,1000.6
2017-03-21T07:46:21.486Z,1000.62
2017-03-21T07:47:02.079Z,1000.65
2017-03-21T07:47:43.708Z,1000.62
2017-03-21T07:48:24.362Z,1000.59
2017-03-21T07:49:05.002Z,1000.62
2017-03-21T07:49:46.549Z,1000.65
2017-03-21T07:50:27.250Z,1000.65
2017-03-21T07:51:07.893Z,1000.66
2017-03-21T07:51:48.938Z,1000.7
2017-03-21T07:52:29.559Z,1000.73
2017-03-21T07:53:10.162Z,1000.71
2017-03-21T07:53:50.813Z,1000.68
2017-03-21T07:54:31.377Z,1000.71
2017-03-21T07:55:12.018Z,1000.73
2017-03-21T07:55:52.669Z,1000.72
2017-03-21T07:56:33.251Z,1000.73
2017-03-21T07:57:13.912Z,1000.69
2017-03-21T07:57:54.524Z,1000.76
2017-03-21T07:58:35.092Z,1000.77
2017-03-21T07:59:16.748Z,1000.77
2017-03-21T07:59:57.408Z,1000.75
2017-03-21T08:00:38.057Z,1000.78
2017-03-21T08:01:18.710Z,1000.81
2017-03-21T08:01:59.371Z,1000.82
2017-03-21T08:02:40.019Z,1000.81
2017-03-21T08:03:20.666Z,1000.79
2017-03-21T08:04:01.324Z,1000.85
2017-03-21T08:04:41.886Z,1000.93
2017-03-21T08:05:22.467Z,1000.89
2017-03-21T08:06:03.085Z,1000.91
2017-03-21T08:06:43.731Z,1000.83
2017-03-21T08:07:24.298Z,1000.87
2017-03-21T08:08:04.898Z,1000.9
2017-03-21T08:08:45.485Z,1000.9
2017-03-21T08:09:26.135Z,1000.94
2017-03-21T08:10:06.710Z,1000.9
2017-03-21T08:10:47.339Z,1000.9
2017-03-21T08:11:27.991Z,1000.89
2017-03-21T08:12:08.560Z,1000.92
2017-03-21T08:12:49.177Z,1000.93
2017-03-21T08:13:29.851Z,1000.91
2017-03-21T08:14:10.402Z,1000.98
2017-03-21T08:14:52.072Z,1001.01
2017-03-21T08:15:32.744Z,1001.01
2017-03-21T08:16:13.382Z,1000.97
2017-03-21T08:16:54.035Z,1000.97
2017-03-21T08:17:35.815Z,1001.03
2017-03-21T08:18:16.469Z,1000.99
2017-03-21T08:18:57.125Z,1000.95
2017-03-21T08:19:37.776Z,1000.97
2017-03-21T08:20:19.368Z,1001.02
2017-03-21T08:21:00.103Z,1001.03
2017-03-21T08:21:40.756Z,1001.09
2017-03-21T08:22:21.411Z,1001.06
2017-03-21T08:23:02.064Z,1001.08
2017-03-21T08:23:42.994Z,1001.04
2017-03-21T08:24:25.109Z,1001.13
2017-03-21T08:25:06.783Z,1001.1
2017-03-21T08:25:47.440Z,1001.1
2017-03-21T08:26:28.277Z,1001.13
2017-03-21T08:27:10.687Z,1001.16
2017-03-21T08:27:51.443Z,1001.11
2017-03-21T08:28:32.306Z,1001.12
2017-03-21T08:29:13.063Z,1001.06
2017-03-21T08:29:53.721Z,1001.11
2017-03-21T08:30:34.370Z,1001.15
2017-03-21T08:31:15.030Z,1001.09
2017-03-21T08:31:55.680Z,1001.13
2017-03-21T08:32:36.344Z,1001.12
2017-03-21T08:33:17.016Z,1001.1
2017-03-21T08:33:57.637Z,1001.11
2017-03-21T08:34:38.211Z,1001.16
2017-03-21T08:35:18.793Z,1001.19
2017-03-21T08:35:59.387Z,1001.18
2017-03-21T08:36:40.043Z,1001.14
2017-03-21T08:37:20.613Z,1001.17
2017-03-21T08:38:01.192Z,1001.2
2017-03-21T08:38:41.793Z,1001.22
2017-03-21T08:39:22.438Z,1001.23
2017-03-21T08:40:03.100Z,1001.2
2017-03-21T08:40:43.750Z,1001.15
2017-03-21T08:41:24.411Z,1001.17
2017-03-21T08:42:07.104Z,1001.22
2017-03-21T08:42:47.757Z,1001.23
2017-03-21T08:43:28.414Z,1001.24
2017-03-21T08:44:08.986Z,1001.17
2017-03-21T08:44:50.634Z,1001.16
2017-03-21T08:45:31.289Z,1001.21
2017-03-21T08:46:11.852Z,1001.15
2017-03-21T08:46:52.502Z,1001.21